createdAt,value
2023-04-27T00:01:20.944Z,100.00
2023-04-27T00:03:48.579Z,100.00
2023-04-27T00:06:16.409Z,100.00
2023-04-27T00:08:43.877Z,100.00
2023-04-27T00:11:11.769Z,100.00
2023-04-27T00:13:39.202Z,100.00
2023-04-27T00:16:07.219Z,100.00
2023-04-27T00:18:34.753Z,100.00
2023-04-27T00:21:02.711Z,100.00
2023-04-27T00:23:30.077Z,100.00
2023-04-27T00:25:57.864Z,100.00
2023-04-27T00:28:25.260Z,100.00
2023-04-27T00:30:54.986Z,100.00
2023-04-27T00:33:22.460Z,100.00
2023-04-27T00:35:50.318Z,100.00
2023-04-27T00:38:17.674Z,100.00
2023-04-27T00:40:45.686Z,100.00
2023-04-27T00:43:13.274Z,100.00
2023-04-27T00:45:46.181Z,100.00
2023-04-27T00:48:13.824Z,100.00
2023-04-27T00:50:41.940Z,100.00
2023-04-27T00:53:09.289Z,100.00
2023-04-27T00:55:36.929Z,100.00
2023-04-27T00:58:04.289Z,100.00
2023-04-27T01:00:32.456Z,100.00
2023-04-27T01:03:01.643Z,100.00
2023-04-27T01:05:31.233Z,100.00
2023-04-27T01:08:00.173Z,100.00
2023-04-27T01:10:28.685Z,100.00
2023-04-27T01:12:56.172Z,100.00
2023-04-27T01:15:24.037Z,100.00
2023-04-27T01:17:58.516Z,100.00
2023-04-27T01:20:30.558Z,100.00
2023-04-27T01:22:58.664Z,100.00
2023-04-27T01:25:26.641Z,100.00
2023-04-27T01:27:54.729Z,100.00
2023-04-27T01:30:25.526Z,100.00
2023-04-27T01:32:52.986Z,100.00
2023-04-27T01:35:20.855Z,100.00
2023-04-27T01:37:48.192Z,100.00
2023-04-27T01:40:18.828Z,100.00
2023-04-27T01:42:46.284Z,100.00
2023-04-27T01:45:14.059Z,100.00
2023-04-27T01:47:41.658Z,100.00
2023-04-27T01:50:09.553Z,100.00
2023-04-27T01:52:37.088Z,100.00
2023-04-27T01:55:05.207Z,100.00
2023-04-27T01:57:32.987Z,100.00
2023-04-27T02:00:01.666Z,100.00
2023-04-27T02:02:48.266Z,100.00
2023-04-27T02:05:16.192Z,100.00
2023-04-27T02:07:43.569Z,100.00
2023-04-27T02:10:11.803Z,100.00
2023-04-27T02:12:39.333Z,100.00
2023-04-27T02:15:09.297Z,100.00
2023-04-27T02:17:36.795Z,100.00
2023-04-27T02:20:07.280Z,100.00
2023-04-27T02:22:34.648Z,100.00
2023-04-27T02:25:03.340Z,100.00
2023-04-27T02:27:30.729Z,100.00
2023-04-27T02:29:59.105Z,100.00
2023-04-27T02:32:27.451Z,100.00
2023-04-27T02:34:56.979Z,100.00
2023-04-27T02:37:25.718Z,100.00
2023-04-27T02:39:53.629Z,100.00
2023-04-27T02:42:21.310Z,100.00
2023-04-27T02:44:49.019Z,100.00
2023-04-27T02:47:17.301Z,100.00
2023-04-27T02:49:45.079Z,100.00
2023-04-27T02:52:12.343Z,100.00
2023-04-27T02:54:40.128Z,100.00
2023-04-27T02:57:07.630Z,100.00
2023-04-27T02:59:35.370Z,100.00
2023-04-27T03:02:02.859Z,100.00
2023-04-27T03:04:30.739Z,100.00
2023-04-27T03:06:58.339Z,100.00
2023-04-27T03:09:26.089Z,100.00
2023-04-27T03:11:53.473Z,100.00
2023-04-27T03:14:21.568Z,100.00
2023-04-27T03:16:49.209Z,100.00
2023-04-27T03:19:16.982Z,100.00
2023-04-27T03:21:44.210Z,100.00
2023-04-27T03:24:11.947Z,100.00
2023-04-27T03:26:39.380Z,100.00
2023-04-27T03:29:06.972Z,100.00
2023-04-27T03:31:34.448Z,100.00
2023-04-27T03:34:02.443Z,100.00
2023-04-27T03:36:29.916Z,100.00
2023-04-27T03:38:57.545Z,100.00
2023-04-27T03:41:26.027Z,100.00
2023-04-27T03:43:54.014Z,100.00
2023-04-27T03:46:21.698Z,100.00
2023-04-27T03:48:50.081Z,100.00
2023-04-27T03:51:18.559Z,100.00
2023-04-27T03:53:47.600Z,100.00
2023-04-27T03:56:15.054Z,100.00
2023-04-27T03:58:42.908Z,100.00
2023-04-27T04:01:19.254Z,100.00
2023-04-27T04:03:48.506Z,100.00
2023-04-27T04:06:16.321Z,100.00
2023-04-27T04:08:43.988Z,100.00
2023-04-27T04:11:12.074Z,100.00
2023-04-27T04:13:40.091Z,100.00
2023-04-27T04:16:09.685Z,100.00
2023-04-27T04:18:37.580Z,100.00
2023-04-27T04:21:06.680Z,100.00
2023-04-27T04:23:34.469Z,100.00
2023-04-27T04:26:03.638Z,100.00
2023-04-27T04:28:35.292Z,100.00
2023-04-27T04:31:03.098Z,100.00
2023-04-27T04:33:31.479Z,100.00
2023-04-27T04:35:59.027Z,100.00
2023-04-27T04:38:26.993Z,100.00
2023-04-27T04:40:54.960Z,100.00
2023-04-27T04:43:22.766Z,100.00
2023-04-27T04:45:50.086Z,100.00
2023-04-27T04:48:20.031Z,100.00
2023-04-27T04:50:47.344Z,100.00
2023-04-27T04:53:14.883Z,100.00
2023-04-27T04:55:42.687Z,100.00
2023-04-27T04:58:10.899Z,100.00
2023-04-27T05:00:38.315Z,100.00
2023-04-27T05:03:07.815Z,100.00
2023-04-27T05:05:35.234Z,100.00
2023-04-27T05:08:02.852Z,100.00
2023-04-27T05:10:30.199Z,100.00
2023-04-27T05:12:58.143Z,100.00
2023-04-27T05:15:25.402Z,100.00
2023-04-27T05:17:54.294Z,100.00
2023-04-27T05:20:21.590Z,100.00
2023-04-27T05:22:48.989Z,100.00
2023-04-27T05:25:16.288Z,100.00
2023-04-27T05:27:43.874Z,100.00
2023-04-27T05:30:11.681Z,100.00
2023-04-27T05:32:39.683Z,100.00
2023-04-27T05:35:07.649Z,100.00
2023-04-27T05:37:35.214Z,100.00
2023-04-27T05:40:02.645Z,100.00
2023-04-27T05:42:30.262Z,100.00
2023-04-27T05:44:57.661Z,100.00
2023-04-27T05:47:25.691Z,100.00
2023-04-27T05:49:53.401Z,100.00
2023-04-27T05:52:22.104Z,93.81
2023-04-27T05:54:50.639Z,92.08
2023-04-27T05:57:18.439Z,93.07
2023-04-27T05:59:45.802Z,89.83
2023-04-27T06:02:13.579Z,90.76
2023-04-27T06:04:41.402Z,87.51
2023-04-27T06:07:10.415Z,86.11
2023-04-27T06:09:38.334Z,84.79
2023-04-27T06:12:06.926Z,84.61
2023-04-27T06:14:36.038Z,85.04
2023-04-27T06:17:04.508Z,87.77
2023-04-27T06:19:32.084Z,82.21
2023-04-27T06:21:59.947Z,83.16
2023-04-27T06:24:27.897Z,80.08
2023-04-27T06:26:55.595Z,82.74
2023-04-27T06:29:23.017Z,81.92
2023-04-27T06:31:51.019Z,81.47
2023-04-27T06:34:18.310Z,76.71
2023-04-27T06:36:45.999Z,74.69
2023-04-27T06:39:14.183Z,76.33
2023-04-27T06:41:42.197Z,75.92
2023-04-27T06:44:19.313Z,78.21
2023-04-27T06:46:46.983Z,76.52
2023-04-27T06:49:14.735Z,74.18
2023-04-27T06:51:42.872Z,74.27
2023-04-27T06:54:10.110Z,75.02
2023-04-27T06:56:37.840Z,80.00
2023-04-27T06:59:05.302Z,73.81
2023-04-27T07:01:32.888Z,68.78
2023-04-27T07:04:00.467Z,67.76
2023-04-27T07:06:28.942Z,68.75
2023-04-27T07:08:56.252Z,68.22
2023-04-27T07:11:23.972Z,68.14
2023-04-27T07:13:51.430Z,69.88
2023-04-27T07:16:19.447Z,66.15
2023-04-27T07:18:46.724Z,67.63
2023-04-27T07:21:14.600Z,67.56
2023-04-27T07:23:42.923Z,67.40
2023-04-27T07:26:10.757Z,67.08
2023-04-27T07:28:39.775Z,65.66
2023-04-27T07:31:07.666Z,64.08
2023-04-27T07:33:35.293Z,65.77
2023-04-27T07:36:03.220Z,61.57
2023-04-27T07:38:31.418Z,64.98
2023-04-27T07:41:01.970Z,67.70
2023-04-27T07:43:29.790Z,68.26
2023-04-27T07:45:58.773Z,61.13
2023-04-27T07:48:26.295Z,63.07
2023-04-27T07:50:54.057Z,61.24
2023-04-27T07:53:21.683Z,59.81
2023-04-27T07:55:49.273Z,59.91
2023-04-27T07:58:16.732Z,62.21
2023-04-27T08:00:44.415Z,61.22
2023-04-27T08:03:12.235Z,63.43
2023-04-27T08:05:40.322Z,65.31
2023-04-27T08:08:08.024Z,64.89
2023-04-27T08:10:35.949Z,68.14
2023-04-27T08:13:03.152Z,67.57
2023-04-27T08:15:31.171Z,71.90
2023-04-27T08:17:58.745Z,69.52
2023-04-27T08:20:26.376Z,67.70
2023-04-27T08:22:54.133Z,71.70
2023-04-27T08:25:21.701Z,69.60
2023-04-27T08:27:49.021Z,66.79
2023-04-27T08:30:17.504Z,64.04
2023-04-27T08:32:44.908Z,63.10
2023-04-27T08:35:13.392Z,63.97
2023-04-27T08:37:40.794Z,66.28
2023-04-27T08:40:10.013Z,65.28
2023-04-27T08:42:37.708Z,63.10
2023-04-27T08:45:08.670Z,67.75
2023-04-27T08:47:42.633Z,65.73
2023-04-27T08:50:11.896Z,65.66
2023-04-27T08:52:39.471Z,68.52
2023-04-27T08:55:08.691Z,70.01
2023-04-27T08:57:36.157Z,68.70
2023-04-27T09:00:16.951Z,68.56
2023-04-27T09:02:48.363Z,66.98
2023-04-27T09:05:20.382Z,67.13
2023-04-27T09:08:02.450Z,67.29
2023-04-27T09:10:30.555Z,68.20
2023-04-27T09:13:01.649Z,69.85
2023-04-27T09:15:29.567Z,73.83
2023-04-27T09:17:57.642Z,70.29
2023-04-27T09:20:27.458Z,64.60
2023-04-27T09:22:55.835Z,61.41
2023-04-27T09:25:30.305Z,67.78
2023-04-27T09:27:58.809Z,64.95
2023-04-27T09:30:27.568Z,62.81
2023-04-27T09:33:02.255Z,64.72
2023-04-27T09:35:32.424Z,68.74
2023-04-27T09:38:01.054Z,63.91
2023-04-27T09:40:31.471Z,60.97
2023-04-27T09:43:01.885Z,58.02
2023-04-27T09:45:29.955Z,56.22
2023-04-27T09:47:58.517Z,59.62
2023-04-27T09:50:26.381Z,61.22
2023-04-27T09:52:53.660Z,63.22
2023-04-27T09:55:42.629Z,67.19
2023-04-27T09:58:28.613Z,69.11
2023-04-27T10:01:35.248Z,69.33
2023-04-27T10:04:22.961Z,67.51
2023-04-27T10:07:02.205Z,67.35
2023-04-27T10:09:41.463Z,68.38
2023-04-27T10:12:28.510Z,68.94
2023-04-27T10:14:57.856Z,66.71
2023-04-27T10:17:30.982Z,64.17
2023-04-27T10:20:07.676Z,62.25
2023-04-27T10:22:54.314Z,64.71
2023-04-27T10:25:23.463Z,63.90
2023-04-27T10:27:53.884Z,66.15
2023-04-27T10:30:26.285Z,63.92
2023-04-27T10:32:58.597Z,65.38
2023-04-27T10:35:37.466Z,63.82
2023-04-27T10:38:10.672Z,63.85
2023-04-27T10:40:38.826Z,60.82
2023-04-27T10:43:14.243Z,62.38
2023-04-27T10:45:42.792Z,63.73
2023-04-27T10:48:14.664Z,66.37
2023-04-27T10:50:42.808Z,61.73
2023-04-27T10:53:10.990Z,62.96
2023-04-27T10:55:38.491Z,61.13
2023-04-27T10:58:06.377Z,59.42
2023-04-27T11:00:39.095Z,59.70
2023-04-27T11:03:14.943Z,58.41
2023-04-27T11:05:43.283Z,59.35
2023-04-27T11:08:15.970Z,59.99
2023-04-27T11:10:45.372Z,64.20
2023-04-27T11:13:21.578Z,62.19
2023-04-27T11:15:49.117Z,60.10
2023-04-27T11:18:22.237Z,61.91
2023-04-27T11:20:51.939Z,62.52
2023-04-27T11:23:30.683Z,61.10
2023-04-27T11:25:58.413Z,60.05
2023-04-27T11:28:26.364Z,58.07
2023-04-27T11:31:00.247Z,59.57
2023-04-27T11:33:28.601Z,56.02
2023-04-27T11:35:56.835Z,56.35
2023-04-27T11:38:24.993Z,61.29
2023-04-27T11:41:06.619Z,52.46
2023-04-27T11:43:35.383Z,52.36
2023-04-27T11:46:04.626Z,50.42
2023-04-27T11:48:32.595Z,51.23
2023-04-27T11:51:01.567Z,52.73
2023-04-27T11:53:33.744Z,51.97
2023-04-27T11:56:05.950Z,54.96
2023-04-27T11:58:35.476Z,53.73
2023-04-27T12:01:04.582Z,54.90
2023-04-27T12:03:33.337Z,55.17
2023-04-27T12:06:15.943Z,55.37
2023-04-27T12:08:48.840Z,54.60
2023-04-27T12:11:16.519Z,54.70
2023-04-27T12:13:44.242Z,54.63
2023-04-27T12:16:11.572Z,54.72
2023-04-27T12:18:39.200Z,54.58
2023-04-27T12:21:08.522Z,55.61
2023-04-27T12:23:37.213Z,54.42
2023-04-27T12:26:04.386Z,54.69
2023-04-27T12:28:32.139Z,54.61
2023-04-27T12:30:59.598Z,53.16
2023-04-27T12:33:27.358Z,51.11
2023-04-27T12:35:54.907Z,53.34
2023-04-27T12:38:22.838Z,52.56
2023-04-27T12:40:50.184Z,52.17
2023-04-27T12:43:17.873Z,51.69
2023-04-27T12:45:45.069Z,54.07
2023-04-27T12:48:12.741Z,53.04
2023-04-27T12:50:40.566Z,52.42
2023-04-27T12:53:08.118Z,51.94
2023-04-27T12:55:37.023Z,53.21
2023-04-27T12:58:05.210Z,52.57
2023-04-27T13:00:32.689Z,53.16
2023-04-27T13:03:00.556Z,52.02
2023-04-27T13:05:30.437Z,52.73
2023-04-27T13:07:59.485Z,54.18
2023-04-27T13:10:26.820Z,54.05
2023-04-27T13:12:54.942Z,54.82
2023-04-27T13:15:22.257Z,51.50
2023-04-27T13:17:49.958Z,51.75
2023-04-27T13:20:17.644Z,53.23
2023-04-27T13:22:45.245Z,51.83
2023-04-27T13:25:12.624Z,52.89
2023-04-27T13:27:40.332Z,51.47
2023-04-27T13:30:08.470Z,53.40
2023-04-27T13:32:36.828Z,52.21
2023-04-27T13:35:05.608Z,52.51
2023-04-27T13:37:33.189Z,54.74
2023-04-27T13:40:00.514Z,56.46
2023-04-27T13:42:29.724Z,53.60
2023-04-27T13:44:57.391Z,52.75
2023-04-27T13:47:25.253Z,56.82
2023-04-27T13:49:52.571Z,54.77
2023-04-27T13:52:20.295Z,55.94
2023-04-27T13:54:47.549Z,55.38
2023-04-27T13:57:15.320Z,53.40
2023-04-27T13:59:42.727Z,55.22
2023-04-27T14:02:10.717Z,54.80
2023-04-27T14:04:38.278Z,54.20
2023-04-27T14:07:06.185Z,55.67
2023-04-27T14:09:33.529Z,56.51
2023-04-27T14:12:01.592Z,54.95
2023-04-27T14:14:29.563Z,52.71
2023-04-27T14:16:57.810Z,54.96
2023-04-27T14:19:25.539Z,55.85
2023-04-27T14:21:53.458Z,54.73
2023-04-27T14:24:20.987Z,54.73
2023-04-27T14:26:49.669Z,54.08
2023-04-27T14:29:20.289Z,55.99
2023-04-27T14:31:48.454Z,55.17
2023-04-27T14:34:15.837Z,54.87
2023-04-27T14:36:43.557Z,56.50
2023-04-27T14:39:10.966Z,54.91
2023-04-27T14:41:38.513Z,54.83
2023-04-27T14:44:07.867Z,56.27
2023-04-27T14:46:35.710Z,56.15
2023-04-27T14:49:03.097Z,56.25
2023-04-27T14:51:32.637Z,56.58
2023-04-27T14:53:59.952Z,58.29
2023-04-27T14:56:27.626Z,57.70
2023-04-27T14:58:55.752Z,57.20
2023-04-27T15:01:23.559Z,60.32
2023-04-27T15:03:54.496Z,58.53
2023-04-27T15:06:24.211Z,58.36
2023-04-27T15:08:51.643Z,60.31
2023-04-27T15:11:19.355Z,60.68
2023-04-27T15:13:47.146Z,62.63
2023-04-27T15:16:14.931Z,63.09
2023-04-27T15:18:42.413Z,63.55
2023-04-27T15:21:10.220Z,63.24
2023-04-27T15:23:37.648Z,63.72
2023-04-27T15:26:05.948Z,64.24
2023-04-27T15:28:34.165Z,63.94
2023-04-27T15:31:01.905Z,64.64
2023-04-27T15:33:29.313Z,64.93
2023-04-27T15:35:57.175Z,65.14
2023-04-27T15:38:24.477Z,63.10
2023-04-27T15:40:52.148Z,63.26
2023-04-27T15:43:19.512Z,62.46
2023-04-27T15:45:47.229Z,64.24
2023-04-27T15:48:14.954Z,62.61
2023-04-27T15:50:42.492Z,63.37
2023-04-27T15:53:09.796Z,63.34
2023-04-27T15:55:37.316Z,61.34
2023-04-27T15:58:04.787Z,61.04
2023-04-27T16:00:32.410Z,63.95
2023-04-27T16:03:00.000Z,63.34
2023-04-27T16:05:28.016Z,61.83
2023-04-27T16:07:55.326Z,61.47
2023-04-27T16:10:23.105Z,61.41
2023-04-27T16:12:50.646Z,62.80
2023-04-27T16:15:18.431Z,61.51
2023-04-27T16:17:45.711Z,62.82
2023-04-27T16:20:14.249Z,64.37
2023-04-27T16:22:41.793Z,60.59
2023-04-27T16:25:12.476Z,60.99
2023-04-27T16:27:40.119Z,62.64
2023-04-27T16:30:08.298Z,64.60
2023-04-27T16:32:36.075Z,61.27
2023-04-27T16:35:03.989Z,59.71
2023-04-27T16:37:31.466Z,61.87
2023-04-27T16:40:06.962Z,60.72
2023-04-27T16:42:34.498Z,62.92
2023-04-27T16:45:02.426Z,63.21
2023-04-27T16:47:31.747Z,62.55
2023-04-27T16:49:59.441Z,64.52
2023-04-27T16:52:26.940Z,64.15
2023-04-27T16:54:54.733Z,66.30
2023-04-27T16:57:22.225Z,64.72
2023-04-27T16:59:50.216Z,64.22
2023-04-27T17:02:24.539Z,64.49
2023-04-27T17:04:54.529Z,65.17
2023-04-27T17:07:21.984Z,64.63
2023-04-27T17:09:49.777Z,65.64
2023-04-27T17:12:17.508Z,68.43
2023-04-27T17:14:45.770Z,68.29
2023-04-27T17:17:13.233Z,69.08
2023-04-27T17:19:41.483Z,67.95
2023-04-27T17:22:11.516Z,67.67
2023-04-27T17:24:39.609Z,67.17
2023-04-27T17:27:06.970Z,67.74
2023-04-27T17:29:34.597Z,67.41
2023-04-27T17:32:02.120Z,68.77
2023-04-27T17:34:29.874Z,70.13
2023-04-27T17:36:57.214Z,72.14
2023-04-27T17:39:25.450Z,72.72
2023-04-27T17:41:52.911Z,74.91
2023-04-27T17:44:21.276Z,74.51
2023-04-27T17:46:50.475Z,76.05
2023-04-27T17:49:19.159Z,77.04
2023-04-27T17:51:47.295Z,77.56
2023-04-27T17:54:14.918Z,78.19
2023-04-27T17:56:42.994Z,79.34
2023-04-27T17:59:10.816Z,80.38
2023-04-27T18:01:38.134Z,80.52
2023-04-27T18:04:07.402Z,81.74
2023-04-27T18:06:34.988Z,82.76
2023-04-27T18:09:03.422Z,83.63
2023-04-27T18:11:30.879Z,84.21
2023-04-27T18:13:58.558Z,84.98
2023-04-27T18:16:26.083Z,87.14
2023-04-27T18:18:53.891Z,87.79
2023-04-27T18:21:21.338Z,88.82
2023-04-27T18:23:49.088Z,90.30
2023-04-27T18:26:16.835Z,90.77
2023-04-27T18:28:44.642Z,92.22
2023-04-27T18:31:18.756Z,93.63
2023-04-27T18:33:46.902Z,97.30
2023-04-27T18:36:14.563Z,100.00
2023-04-27T18:38:42.308Z,100.00
2023-04-27T18:41:09.688Z,100.00
2023-04-27T18:43:37.747Z,100.00
2023-04-27T18:46:05.185Z,100.00
2023-04-27T18:48:33.058Z,100.00
2023-04-27T18:51:00.724Z,100.00
2023-04-27T18:53:28.686Z,100.00
2023-04-27T18:55:56.311Z,100.00
2023-04-27T18:58:24.318Z,100.00
2023-04-27T19:00:51.877Z,100.00
2023-04-27T19:03:20.065Z,100.00
2023-04-27T19:05:48.179Z,100.00
2023-04-27T19:08:15.890Z,100.00
2023-04-27T19:10:43.759Z,100.00
2023-04-27T19:13:11.783Z,100.00
2023-04-27T19:15:39.184Z,100.00
2023-04-27T19:18:11.497Z,100.00
2023-04-27T19:20:40.588Z,100.00
2023-04-27T19:23:09.696Z,100.00
2023-04-27T19:25:37.301Z,100.00
2023-04-27T19:28:05.968Z,100.00
2023-04-27T19:30:33.573Z,100.00
2023-04-27T19:33:01.635Z,100.00
2023-04-27T19:35:29.012Z,100.00
2023-04-27T19:37:56.923Z,100.00
2023-04-27T19:40:24.756Z,100.00
2023-04-27T19:42:52.665Z,100.00
2023-04-27T19:45:20.866Z,100.00
2023-04-27T19:47:49.129Z,100.00
2023-04-27T19:50:17.486Z,100.00
2023-04-27T19:52:45.755Z,100.00
2023-04-27T19:55:13.825Z,100.00
2023-04-27T19:57:41.806Z,100.00
2023-04-27T20:00:11.853Z,100.00
2023-04-27T20:02:42.732Z,100.00
2023-04-27T20:05:10.942Z,100.00
2023-04-27T20:07:38.818Z,100.00
2023-04-27T20:10:06.619Z,100.00
2023-04-27T20:15:05.392Z,100.00
2023-04-27T20:17:33.143Z,100.00
2023-04-27T20:20:01.495Z,100.00
2023-04-27T20:22:29.692Z,100.00
2023-04-27T20:24:59.309Z,100.00
2023-04-27T20:27:27.300Z,100.00
2023-04-27T20:29:54.839Z,100.00
2023-04-27T20:32:22.436Z,100.00
2023-04-27T20:34:49.981Z,100.00
2023-04-27T20:37:17.566Z,100.00
2023-04-27T20:39:44.940Z,100.00
2023-04-27T20:42:15.746Z,100.00
2023-04-27T20:44:45.943Z,100.00
2023-04-27T20:47:15.119Z,100.00
2023-04-27T20:49:42.703Z,100.00
2023-04-27T20:52:10.363Z,100.00
2023-04-27T20:54:37.873Z,100.00
2023-04-27T20:57:10.933Z,100.00
2023-04-27T20:59:38.287Z,100.00
2023-04-27T21:02:05.952Z,100.00
2023-04-27T21:04:33.658Z,100.00
2023-04-27T21:07:01.511Z,100.00
2023-04-27T21:09:28.932Z,100.00
2023-04-27T21:11:56.511Z,100.00
2023-04-27T21:14:23.948Z,100.00
2023-04-27T21:16:51.676Z,100.00
2023-04-27T21:19:19.116Z,100.00
2023-04-27T21:21:46.974Z,100.00
2023-04-27T21:24:14.520Z,100.00
2023-04-27T21:26:42.549Z,100.00
2023-04-27T21:29:10.139Z,100.00
2023-04-27T21:31:37.772Z,100.00
2023-04-27T21:34:06.228Z,100.00
2023-04-27T21:36:34.506Z,100.00
2023-04-27T21:39:01.756Z,100.00
2023-04-27T21:41:29.397Z,100.00
2023-04-27T21:43:56.968Z,100.00
2023-04-27T21:46:24.513Z,100.00
2023-04-27T21:48:51.784Z,100.00
2023-04-27T21:51:19.309Z,100.00
2023-04-27T21:53:46.694Z,100.00
2023-04-27T21:56:14.353Z,100.00
2023-04-27T21:58:41.772Z,100.00
2023-04-27T22:01:10.568Z,100.00
2023-04-27T22:03:38.509Z,100.00
2023-04-27T22:06:07.705Z,100.00
2023-04-27T22:08:35.357Z,100.00
2023-04-27T22:11:02.892Z,100.00
2023-04-27T22:13:30.238Z,100.00
2023-04-27T22:15:58.220Z,100.00
2023-04-27T22:18:25.688Z,100.00
2023-04-27T22:20:55.243Z,100.00
2023-04-27T22:23:22.556Z,100.00
2023-04-27T22:25:50.149Z,100.00
2023-04-27T22:28:17.416Z,100.00
2023-04-27T22:30:45.528Z,100.00
2023-04-27T22:33:12.981Z,100.00
2023-04-27T22:35:40.756Z,100.00
2023-04-27T22:38:08.084Z,100.00
2023-04-27T22:40:36.344Z,100.00
2023-04-27T22:43:04.007Z,100.00
2023-04-27T22:45:32.256Z,100.00
2023-04-27T22:47:59.419Z,100.00
2023-04-27T22:50:27.341Z,100.00
2023-04-27T22:52:55.175Z,100.00
2023-04-27T22:55:24.711Z,100.00
2023-04-27T22:57:53.875Z,100.00
2023-04-27T23:00:21.560Z,100.00
2023-04-27T23:02:48.765Z,100.00
2023-04-27T23:05:16.882Z,100.00
2023-04-27T23:07:44.591Z,100.00
2023-04-27T23:10:13.100Z,100.00
2023-04-27T23:12:40.451Z,100.00
2023-04-27T23:15:08.547Z,100.00
2023-04-27T23:17:36.156Z,100.00
2023-04-27T23:20:24.160Z,100.00
2023-04-27T23:22:55.179Z,100.00
2023-04-27T23:25:22.462Z,100.00
2023-04-27T23:27:51.919Z,100.00
2023-04-27T23:30:21.640Z,100.00
2023-04-27T23:32:48.908Z,100.00
2023-04-27T23:35:16.696Z,100.00
2023-04-27T23:37:44.506Z,100.00
2023-04-27T23:40:12.445Z,100.00
2023-04-27T23:42:39.955Z,100.00
2023-04-27T23:45:08.034Z,100.00
2023-04-27T23:47:35.399Z,100.00
2023-04-27T23:50:03.114Z,100.00
2023-04-27T23:52:30.358Z,100.00
2023-04-27T23:54:58.393Z,100.00
2023-04-27T23:57:25.888Z,100.00
2023-04-27T23:59:53.420Z,100.00
